sensor_id;sensor_type;location;lat;lon;timestamp;pressure;altitude;pressure_sealevel;temperature;humidity
6514;BME280;3290;47.716;9.070;2023-05-22T00:00:07;96528.38;;;18.26;97.95
6514;BME280;3290;47.716;9.070;2023-05-22T00:02:36;96524.38;;;18.33;97.47
6514;BME280;3290;47.716;9.070;2023-05-22T00:05:05;96526.00;;;18.24;97.84
6514;BME280;3290;47.716;9.070;2023-05-22T00:07:31;96525.47;;;18.32;98.35
6514;BME280;3290;47.716;9.070;2023-05-22T00:09:56;96527.47;;;18.55;98.21
6514;BME280;3290;47.716;9.070;2023-05-22T00:12:22;96530.00;;;18.75;96.17
6514;BME280;3290;47.716;9.070;2023-05-22T00:14:47;96534.09;;;18.57;95.67
6514;BME280;3290;47.716;9.070;2023-05-22T00:17:13;96527.16;;;18.61;95.09
6514;BME280;3290;47.716;9.070;2023-05-22T00:19:39;96533.22;;;18.67;94.18
6514;BME280;3290;47.716;9.070;2023-05-22T00:22:05;96534.13;;;18.47;94.97
6514;BME280;3290;47.716;9.070;2023-05-22T00:24:30;96531.09;;;18.69;93.87
6514;BME280;3290;47.716;9.070;2023-05-22T00:26:56;96528.44;;;18.69;93.88
6514;BME280;3290;47.716;9.070;2023-05-22T00:29:21;96536.63;;;18.72;93.30
6514;BME280;3290;47.716;9.070;2023-05-22T00:31:47;96541.47;;;18.65;93.65
6514;BME280;3290;47.716;9.070;2023-05-22T00:34:12;96534.47;;;18.31;95.05
6514;BME280;3290;47.716;9.070;2023-05-22T00:36:38;96545.00;;;18.46;93.84
6514;BME280;3290;47.716;9.070;2023-05-22T00:39:03;96545.50;;;18.53;93.26
6514;BME280;3290;47.716;9.070;2023-05-22T00:41:30;96542.06;;;18.52;93.38
6514;BME280;3290;47.716;9.070;2023-05-22T00:43:58;96547.72;;;18.36;93.57
6514;BME280;3290;47.716;9.070;2023-05-22T00:46:24;96549.91;;;18.14;95.13
6514;BME280;3290;47.716;9.070;2023-05-22T00:48:49;96553.44;;;17.61;98.74
6514;BME280;3290;47.716;9.070;2023-05-22T00:51:18;96551.06;;;17.44;99.79
6514;BME280;3290;47.716;9.070;2023-05-22T00:53:45;96552.09;;;17.23;100.00
6514;BME280;3290;47.716;9.070;2023-05-22T00:56:11;96551.03;;;17.10;100.00
6514;BME280;3290;47.716;9.070;2023-05-22T00:58:37;96553.72;;;17.24;100.00
6514;BME280;3290;47.716;9.070;2023-05-22T01:01:03;96561.16;;;17.32;100.00
6514;BME280;3290;47.716;9.070;2023-05-22T01:03:31;96566.44;;;17.52;100.00
6514;BME280;3290;47.716;9.070;2023-05-22T01:05:57;96567.50;;;17.36;100.00
6514;BME280;3290;47.716;9.070;2023-05-22T01:08:23;96569.63;;;17.34;100.00
6514;BME280;3290;47.716;9.070;2023-05-22T01:11:01;96567.47;;;17.51;100.00
6514;BME280;3290;47.716;9.070;2023-05-22T01:13:38;96567.19;;;17.72;98.68
6514;BME280;3290;47.716;9.070;2023-05-22T01:16:33;96573.84;;;17.70;98.65
6514;BME280;3290;47.716;9.070;2023-05-22T01:24:57;96575.16;;;17.43;100.00
6514;BME280;3290;47.716;9.070;2023-05-22T01:33:02;96584.69;;;17.63;99.56
6514;BME280;3290;47.716;9.070;2023-05-22T01:35:29;96582.31;;;17.72;100.00
6514;BME280;3290;47.716;9.070;2023-05-22T01:37:56;96582.81;;;17.89;100.00
6514;BME280;3290;47.716;9.070;2023-05-22T01:40:22;96584.91;;;18.06;100.00
6514;BME280;3290;47.716;9.070;2023-05-22T01:42:48;96584.41;;;18.09;100.00
6514;BME280;3290;47.716;9.070;2023-05-22T01:45:13;96586.41;;;18.42;100.00
6514;BME280;3290;47.716;9.070;2023-05-22T01:47:39;96586.78;;;18.01;99.34
6514;BME280;3290;47.716;9.070;2023-05-22T01:50:05;96590.25;;;17.62;100.00
6514;BME280;3290;47.716;9.070;2023-05-22T01:52:52;96588.69;;;17.61;100.00
6514;BME280;3290;47.716;9.070;2023-05-22T01:55:26;96585.50;;;17.39;100.00
6514;BME280;3290;47.716;9.070;2023-05-22T01:58:01;96583.91;;;17.38;
6514;BME280;3290;47.716;9.070;2023-05-22T02:00:34;96587.56;;;17.13;100.00
6514;BME280;3290;47.716;9.070;2023-05-22T02:03:05;96587.00;;;16.96;100.00
6514;BME280;3290;47.716;9.070;2023-05-22T02:05:33;96585.91;;;16.82;100.00
6514;BME280;3290;47.716;9.070;2023-05-22T02:08:01;96581.97;;;16.89;100.00
6514;BME280;3290;47.716;9.070;2023-05-22T02:10:28;96584.25;;;16.61;100.00
6514;BME280;3290;47.716;9.070;2023-05-22T02:12:54;96590.06;;;16.58;100.00
6514;BME280;3290;47.716;9.070;2023-05-22T02:15:20;96578.75;;;16.83;100.00
6514;BME280;3290;47.716;9.070;2023-05-22T02:17:45;96578.28;;;17.00;100.00
6514;BME280;3290;47.716;9.070;2023-05-22T02:20:14;96578.03;;;17.07;100.00
6514;BME280;3290;47.716;9.070;2023-05-22T02:22:45;96576.94;;;17.08;100.00
6514;BME280;3290;47.716;9.070;2023-05-22T02:25:12;96581.75;;;17.16;100.00
6514;BME280;3290;47.716;9.070;2023-05-22T02:27:42;96579.59;;;16.98;100.00
6514;BME280;3290;47.716;9.070;2023-05-22T02:30:09;96576.38;;;16.86;100.00
6514;BME280;3290;47.716;9.070;2023-05-22T02:32:35;96577.91;;;16.57;100.00
6514;BME280;3290;47.716;9.070;2023-05-22T02:35:00;96579.13;;;16.35;100.00
6514;BME280;3290;47.716;9.070;2023-05-22T02:37:27;96577.25;;;16.31;100.00
6514;BME280;3290;47.716;9.070;2023-05-22T02:39:52;96576.44;;;16.25;100.00
6514;BME280;3290;47.716;9.070;2023-05-22T02:42:17;96578.38;;;16.49;100.00
6514;BME280;3290;47.716;9.070;2023-05-22T02:44:43;96577.91;;;16.67;100.00
6514;BME280;3290;47.716;9.070;2023-05-22T02:47:08;96576.06;;;16.73;100.00
6514;BME280;3290;47.716;9.070;2023-05-22T02:49:34;96573.00;;;17.05;100.00
6514;BME280;3290;47.716;9.070;2023-05-22T02:51:59;96576.94;;;17.08;100.00
6514;BME280;3290;47.716;9.070;2023-05-22T02:54:25;96573.72;;;16.81;100.00
6514;BME280;3290;47.716;9.070;2023-05-22T02:56:50;96568.72;;;16.89;100.00
6514;BME280;3290;47.716;9.070;2023-05-22T02:59:16;96574.03;;;17.04;100.00
6514;BME280;3290;47.716;9.070;2023-05-22T03:01:41;96576.69;;;17.09;100.00
6514;BME280;3290;47.716;9.070;2023-05-22T03:04:08;96582.75;;;16.90;100.00
6514;BME280;3290;47.716;9.070;2023-05-22T03:06:34;96582.25;;;17.03;100.00
6514;BME280;3290;47.716;9.070;2023-05-22T03:09:01;96575.81;;;16.74;100.00
6514;BME280;3290;47.716;9.070;2023-05-22T03:11:29;96581.56;;;16.51;100.00
6514;BME280;3290;47.716;9.070;2023-05-22T03:13:54;96582.44;;;16.16;100.00
6514;BME280;3290;47.716;9.070;2023-05-22T03:16:20;96594.16;;;16.25;100.00
6514;BME280;3290;47.716;9.070;2023-05-22T03:18:46;96592.00;;;16.22;100.00
6514;BME280;3290;47.716;9.070;2023-05-22T03:21:11;96585.22;;;16.36;100.00
6514;BME280;3290;47.716;9.070;2023-05-22T03:23:36;96593.94;;;16.31;100.00
6514;BME280;3290;47.716;9.070;2023-05-22T03:26:02;96592.16;;;16.51;100.00
6514;BME280;3290;47.716;9.070;2023-05-22T03:28:27;96592.91;;;16.42;100.00
6514;BME280;3290;47.716;9.070;2023-05-22T03:30:52;96599.31;;;16.56;100.00
6514;BME280;3290;47.716;9.070;2023-05-22T03:33:18;96592.88;;;16.37;100.00
6514;BME280;3290;47.716;9.070;2023-05-22T03:35:43;96597.38;;;16.37;100.00
6514;BME280;3290;47.716;9.070;2023-05-22T03:38:09;96598.97;;;16.38;100.00
6514;BME280;3290;47.716;9.070;2023-05-22T03:40:34;96602.38;;;16.28;100.00
6514;BME280;3290;47.716;9.070;2023-05-22T03:43:00;96594.69;;;16.27;100.00
6514;BME280;3290;47.716;9.070;2023-05-22T03:45:25;96597.78;;;16.14;100.00
6514;BME280;3290;47.716;9.070;2023-05-22T03:47:50;96593.13;;;16.36;100.00
6514;BME280;3290;47.716;9.070;2023-05-22T03:50:16;96601.53;;;16.23;100.00
6514;BME280;3290;47.716;9.070;2023-05-22T03:52:41;96604.72;;;16.25;100.00
6514;BME280;3290;47.716;9.070;2023-05-22T03:55:07;96610.25;;;16.23;100.00
6514;BME280;3290;47.716;9.070;2023-05-22T03:57:32;96615.19;;;16.15;100.00
6514;BME280;3290;47.716;9.070;2023-05-22T03:59:58;96604.78;;;16.35;100.00
6514;BME280;3290;47.716;9.070;2023-05-22T04:02:30;96610.63;;;16.46;100.00
6514;BME280;3290;47.716;9.070;2023-05-22T04:04:55;96609.31;;;16.44;100.00
6514;BME280;3290;47.716;9.070;2023-05-22T04:07:21;96608.56;;;16.48;100.00
6514;BME280;3290;47.716;9.070;2023-05-22T04:09:46;96606.13;;;16.42;100.00
6514;BME280;3290;47.716;9.070;2023-05-22T04:12:11;96610.66;;;16.51;100.00
6514;BME280;3290;47.716;9.070;2023-05-22T04:14:37;96615.66;;;16.02;100.00
6514;BME280;3290;47.716;9.070;2023-05-22T04:17:02;96619.81;;;15.88;100.00
6514;BME280;3290;47.716;9.070;2023-05-22T04:19:28;96622.19;;;15.90;100.00
6514;BME280;3290;47.716;9.070;2023-05-22T04:21:54;96613.63;;;16.14;100.00
6514;BME280;3290;47.716;9.070;2023-05-22T04:24:19;96621.13;;;16.27;100.00
6514;BME280;3290;47.716;9.070;2023-05-22T04:26:47;96626.66;;;16.25;100.00
6514;BME280;3290;47.716;9.070;2023-05-22T04:29:13;96627.97;;;16.23;100.00
6514;BME280;3290;47.716;9.070;2023-05-22T04:31:38;96633.81;;;16.25;100.00
6514;BME280;3290;47.716;9.070;2023-05-22T04:34:04;96633.16;;;16.13;100.00
6514;BME280;3290;47.716;9.070;2023-05-22T04:36:30;96634.88;;;16.29;100.00
6514;BME280;3290;47.716;9.070;2023-05-22T04:38:55;96639.00;;;16.56;100.00
6514;BME280;3290;47.716;9.070;2023-05-22T04:41:21;96642.56;;;16.91;100.00
6514;BME280;3290;47.716;9.070;2023-05-22T04:43:53;96648.50;;;17.18;100.00
6514;BME280;3290;47.716;9.070;2023-05-22T04:46:18;96651.03;;;16.93;100.00
6514;BME280;3290;47.716;9.070;2023-05-22T04:48:45;96655.78;;;16.86;100.00
6514;BME280;3290;47.716;9.070;2023-05-22T04:51:11;96654.50;;;16.98;100.00
6514;BME280;3290;47.716;9.070;2023-05-22T04:53:38;96664.31;;;16.98;100.00
6514;BME280;3290;47.716;9.070;2023-05-22T04:56:04;96654.88;;;17.26;100.00
6514;BME280;3290;47.716;9.070;2023-05-22T04:58:30;96664.97;;;17.54;100.00
6514;BME280;3290;47.716;9.070;2023-05-22T05:00:55;96660.22;;;17.61;100.00
6514;BME280;3290;47.716;9.070;2023-05-22T05:03:22;96666.03;;;17.83;100.00
6514;BME280;3290;47.716;9.070;2023-05-22T05:05:47;96666.59;;;18.04;100.00
6514;BME280;3290;47.716;9.070;2023-05-22T05:08:13;96661.03;;;18.11;100.00
6514;BME280;3290;47.716;9.070;2023-05-22T05:10:38;96653.06;;;18.31;100.00
6514;BME280;3290;47.716;9.070;2023-05-22T05:13:04;96657.50;;;18.55;100.00
6514;BME280;3290;47.716;9.070;2023-05-22T05:15:29;96653.75;;;18.66;100.00
6514;BME280;3290;47.716;9.070;2023-05-22T05:17:55;96655.00;;;18.83;100.00
6514;BME280;3290;47.716;9.070;2023-05-22T05:20:20;96650.50;;;18.84;100.00
6514;BME280;3290;47.716;9.070;2023-05-22T05:22:46;96663.81;;;18.69;100.00
6514;BME280;3290;47.716;9.070;2023-05-22T05:25:11;96661.19;;;18.59;100.00
6514;BME280;3290;47.716;9.070;2023-05-22T05:27:37;96661.97;;;18.64;100.00
6514;BME280;3290;47.716;9.070;2023-05-22T05:30:03;96662.72;;;18.80;100.00
6514;BME280;3290;47.716;9.070;2023-05-22T05:32:30;96658.88;;;19.15;99.53
6514;BME280;3290;47.716;9.070;2023-05-22T05:34:55;96656.22;;;19.15;100.00
6514;BME280;3290;47.716;9.070;2023-05-22T05:37:21;96659.09;;;19.24;98.95
6514;BME280;3290;47.716;9.070;2023-05-22T05:39:47;96650.78;;;19.35;98.86
6514;BME280;3290;47.716;9.070;2023-05-22T05:42:12;96659.91;;;19.14;99.00
6514;BME280;3290;47.716;9.070;2023-05-22T05:44:37;96655.31;;;19.34;99.49
6514;BME280;3290;47.716;9.070;2023-05-22T05:47:03;96657.75;;;19.26;99.85
6514;BME280;3290;47.716;9.070;2023-05-22T05:49:28;96659.63;;;19.21;99.61
6514;BME280;3290;47.716;9.070;2023-05-22T05:51:53;96660.88;;;19.33;97.96
6514;BME280;3290;47.716;9.070;2023-05-22T05:54:19;96659.81;;;19.34;100.00
6514;BME280;3290;47.716;9.070;2023-05-22T05:56:45;96661.66;;;19.38;100.00
6514;BME280;3290;47.716;9.070;2023-05-22T05:59:11;96658.78;;;19.68;100.00
6514;BME280;3290;47.716;9.070;2023-05-22T06:01:36;96655.81;;;19.74;99.59
6514;BME280;3290;47.716;9.070;2023-05-22T06:04:03;96661.03;;;19.89;97.49
6514;BME280;3290;47.716;9.070;2023-05-22T06:06:30;96658.50;;;20.08;97.53
6514;BME280;3290;47.716;9.070;2023-05-22T06:09:01;96658.63;;;20.21;95.87
6514;BME280;3290;47.716;9.070;2023-05-22T06:11:26;96664.59;;;20.36;94.94
6514;BME280;3290;47.716;9.070;2023-05-22T06:13:52;96661.13;;;20.41;94.66
6514;BME280;3290;47.716;9.070;2023-05-22T06:16:17;96658.84;;;20.52;92.00
6514;BME280;3290;47.716;9.070;2023-05-22T06:18:42;96663.56;;;20.60;91.26
6514;BME280;3290;47.716;9.070;2023-05-22T06:21:10;96671.16;;;20.72;91.13
6514;BME280;3290;47.716;9.070;2023-05-22T06:23:35;96672.53;;;20.69;90.74
6514;BME280;3290;47.716;9.070;2023-05-22T06:26:01;96672.81;;;20.91;89.48
6514;BME280;3290;47.716;9.070;2023-05-22T06:28:26;96676.91;;;20.55;92.06
6514;BME280;3290;47.716;9.070;2023-05-22T06:30:51;96675.91;;;20.51;90.27
6514;BME280;3290;47.716;9.070;2023-05-22T06:33:17;96676.16;;;20.78;90.61
6514;BME280;3290;47.716;9.070;2023-05-22T06:35:42;96672.75;;;20.96;89.06
6514;BME280;3290;47.716;9.070;2023-05-22T06:38:08;96675.03;;;20.84;87.05
6514;BME280;3290;47.716;9.070;2023-05-22T06:40:33;96661.91;;;21.11;87.07
6514;BME280;3290;47.716;9.070;2023-05-22T06:43:00;96670.22;;;21.27;85.05
6514;BME280;3290;47.716;9.070;2023-05-22T06:45:25;96669.38;;;21.50;84.61
6514;BME280;3290;47.716;9.070;2023-05-22T06:47:52;96667.44;;;21.74;83.31
6514;BME280;3290;47.716;9.070;2023-05-22T06:50:21;96663.78;;;21.70;82.79
6514;BME280;3290;47.716;9.070;2023-05-22T06:52:47;96665.56;;;21.93;81.47
6514;BME280;3290;47.716;9.070;2023-05-22T06:55:13;96653.75;;;21.80;79.97
6514;BME280;3290;47.716;9.070;2023-05-22T06:57:38;96664.53;;;21.89;79.23
6514;BME280;3290;47.716;9.070;2023-05-22T07:00:04;96670.63;;;21.58;79.72
6514;BME280;3290;47.716;9.070;2023-05-22T07:02:33;96672.66;;;22.15;78.41
6514;BME280;3290;47.716;9.070;2023-05-22T07:04:59;96667.41;;;22.42;77.40
6514;BME280;3290;47.716;9.070;2023-05-22T07:07:24;96671.41;;;22.08;77.91
6514;BME280;3290;47.716;9.070;2023-05-22T07:09:50;96669.00;;;22.56;78.14
6514;BME280;3290;47.716;9.070;2023-05-22T07:12:15;96669.56;;;22.53;77.32
6514;BME280;3290;47.716;9.070;2023-05-22T07:14:40;96671.47;;;22.80;76.99
6514;BME280;3290;47.716;9.070;2023-05-22T07:17:06;96668.50;;;22.68;77.10
6514;BME280;3290;47.716;9.070;2023-05-22T07:19:32;96673.97;;;22.63;75.33
6514;BME280;3290;47.716;9.070;2023-05-22T07:21:58;96674.25;;;22.61;75.57
6514;BME280;3290;47.716;9.070;2023-05-22T07:24:24;96673.34;;;22.52;74.72
6514;BME280;3290;47.716;9.070;2023-05-22T07:26:49;96674.00;;;22.90;74.16
6514;BME280;3290;47.716;9.070;2023-05-22T07:29:14;96673.78;;;23.26;73.79
6514;BME280;3290;47.716;9.070;2023-05-22T07:31:40;96666.78;;;23.52;70.69
6514;BME280;3290;47.716;9.070;2023-05-22T07:34:06;96663.84;;;23.40;71.43
6514;BME280;3290;47.716;9.070;2023-05-22T07:36:32;96662.25;;;23.87;69.16
6514;BME280;3290;47.716;9.070;2023-05-22T07:38:59;96663.69;;;23.58;69.03
6514;BME280;3290;47.716;9.070;2023-05-22T07:41:24;96664.19;;;23.60;69.65
6514;BME280;3290;47.716;9.070;2023-05-22T07:43:51;96665.94;;;24.21;67.51
6514;BME280;3290;47.716;9.070;2023-05-22T07:46:16;96668.94;;;23.76;67.10
6514;BME280;3290;47.716;9.070;2023-05-22T07:48:42;96675.19;;;23.10;68.12
6514;BME280;3290;47.716;9.070;2023-05-22T07:51:07;96672.13;;;23.65;66.45
6514;BME280;3290;47.716;9.070;2023-05-22T07:53:33;96670.38;;;23.82;67.61
6514;BME280;3290;47.716;9.070;2023-05-22T07:55:58;96662.63;;;23.94;65.70
6514;BME280;3290;47.716;9.070;2023-05-22T07:58:24;96669.34;;;23.57;67.43
6514;BME280;3290;47.716;9.070;2023-05-22T08:00:49;96666.38;;;23.93;65.96
6514;BME280;3290;47.716;9.070;2023-05-22T08:03:14;96668.06;;;24.11;66.67
6514;BME280;3290;47.716;9.070;2023-05-22T08:05:40;96670.63;;;23.11;67.62
6514;BME280;3290;47.716;9.070;2023-05-22T08:08:06;96660.44;;;23.61;66.70
6514;BME280;3290;47.716;9.070;2023-05-22T08:10:31;96662.88;;;24.28;64.59
6514;BME280;3290;47.716;9.070;2023-05-22T08:12:56;96662.38;;;24.56;62.82
6514;BME280;3290;47.716;9.070;2023-05-22T08:15:26;96659.00;;;24.42;62.12
6514;BME280;3290;47.716;9.070;2023-05-22T08:17:52;96665.34;;;25.15;58.57
6514;BME280;3290;47.716;9.070;2023-05-22T08:20:17;96657.97;;;25.45;58.70
6514;BME280;3290;47.716;9.070;2023-05-22T08:22:42;96659.72;;;25.41;59.03
6514;BME280;3290;47.716;9.070;2023-05-22T08:25:08;96655.50;;;25.02;57.71
6514;BME280;3290;47.716;9.070;2023-05-22T08:27:33;96654.84;;;24.96;61.35
6514;BME280;3290;47.716;9.070;2023-05-22T08:30:00;96650.47;;;25.09;58.14
6514;BME280;3290;47.716;9.070;2023-05-22T08:32:26;96650.06;;;24.85;60.99
6514;BME280;3290;47.716;9.070;2023-05-22T08:34:51;96659.94;;;24.38;59.82
6514;BME280;3290;47.716;9.070;2023-05-22T08:37:16;96650.41;;;24.92;59.50
6514;BME280;3290;47.716;9.070;2023-05-22T08:39:42;96649.25;;;25.32;56.79
6514;BME280;3290;47.716;9.070;2023-05-22T08:42:07;96641.09;;;25.53;57.55
6514;BME280;3290;47.716;9.070;2023-05-22T08:44:33;96647.75;;;25.89;55.97
6514;BME280;3290;47.716;9.070;2023-05-22T08:47:00;96643.66;;;25.92;53.15
6514;BME280;3290;47.716;9.070;2023-05-22T08:49:25;96641.75;;;25.84;53.99
6514;BME280;3290;47.716;9.070;2023-05-22T08:51:58;96649.25;;;24.85;56.34
6514;BME280;3290;47.716;9.070;2023-05-22T08:54:25;96645.16;;;25.26;54.90
6514;BME280;3290;47.716;9.070;2023-05-22T08:56:52;96652.06;;;25.10;55.39
6514;BME280;3290;47.716;9.070;2023-05-22T08:59:18;96645.16;;;25.42;53.70
6514;BME280;3290;47.716;9.070;2023-05-22T09:01:45;96641.13;;;25.87;53.73
6514;BME280;3290;47.716;9.070;2023-05-22T09:04:12;96644.56;;;26.13;52.95
6514;BME280;3290;47.716;9.070;2023-05-22T09:06:37;96641.75;;;26.09;51.52
6514;BME280;3290;47.716;9.070;2023-05-22T09:09:02;96630.34;;;25.36;54.06
6514;BME280;3290;47.716;9.070;2023-05-22T09:11:28;96631.31;;;26.08;52.45
6514;BME280;3290;47.716;9.070;2023-05-22T09:14:08;96631.25;;;26.41;51.67
6514;BME280;3290;47.716;9.070;2023-05-22T09:16:54;96640.13;;;26.33;51.74
6514;BME280;3290;47.716;9.070;2023-05-22T09:19:19;96628.63;;;25.57;51.85
6514;BME280;3290;47.716;9.070;2023-05-22T09:21:45;96630.50;;;26.41;53.14
6514;BME280;3290;47.716;9.070;2023-05-22T09:24:11;96627.19;;;26.18;50.99
6514;BME280;3290;47.716;9.070;2023-05-22T09:26:37;96630.34;;;26.37;50.09
6514;BME280;3290;47.716;9.070;2023-05-22T09:29:04;96625.16;;;25.82;50.57
6514;BME280;3290;47.716;9.070;2023-05-22T09:31:30;96628.78;;;26.03;50.51
6514;BME280;3290;47.716;9.070;2023-05-22T09:33:56;96628.50;;;26.58;49.57
6514;BME280;3290;47.716;9.070;2023-05-22T09:36:29;96629.84;;;26.35;50.17
6514;BME280;3290;47.716;9.070;2023-05-22T09:38:55;96626.09;;;26.65;49.26
6514;BME280;3290;47.716;9.070;2023-05-22T09:41:22;96628.19;;;27.54;49.99
6514;BME280;3290;47.716;9.070;2023-05-22T09:43:50;96624.13;;;27.88;48.02
6514;BME280;3290;47.716;9.070;2023-05-22T09:46:15;96623.03;;;28.01;45.99
6514;BME280;3290;47.716;9.070;2023-05-22T09:48:41;96619.97;;;27.30;49.25
6514;BME280;3290;47.716;9.070;2023-05-22T09:51:07;96617.41;;;27.94;45.74
6514;BME280;3290;47.716;9.070;2023-05-22T09:53:34;96615.81;;;27.33;48.71
6514;BME280;3290;47.716;9.070;2023-05-22T09:56:05;96610.94;;;27.26;46.81
6514;BME280;3290;47.716;9.070;2023-05-22T09:58:34;96612.56;;;27.68;46.28
6514;BME280;3290;47.716;9.070;2023-05-22T10:01:02;96612.28;;;27.40;46.25
6514;BME280;3290;47.716;9.070;2023-05-22T10:03:30;96611.94;;;27.42;46.15
6514;BME280;3290;47.716;9.070;2023-05-22T10:05:57;96606.75;;;28.18;45.24
6514;BME280;3290;47.716;9.070;2023-05-22T10:08:34;96614.63;;;28.23;45.33
6514;BME280;3290;47.716;9.070;2023-05-22T10:11:01;96607.25;;;28.32;44.85
6514;BME280;3290;47.716;9.070;2023-05-22T10:13:27;96602.16;;;28.63;45.69
6514;BME280;3290;47.716;9.070;2023-05-22T10:15:54;96602.25;;;28.66;43.14
6514;BME280;3290;47.716;9.070;2023-05-22T10:18:20;96612.28;;;28.65;45.14
6514;BME280;3290;47.716;9.070;2023-05-22T10:20:46;96611.75;;;27.87;43.94
6514;BME280;3290;47.716;9.070;2023-05-22T10:23:13;96605.41;;;28.24;43.52
6514;BME280;3290;47.716;9.070;2023-05-22T10:25:40;96601.88;;;28.56;41.36
6514;BME280;3290;47.716;9.070;2023-05-22T10:28:06;96591.94;;;28.80;41.82
6514;BME280;3290;47.716;9.070;2023-05-22T10:35:49;96596.00;;;28.74;40.91
6514;BME280;3290;47.716;9.070;2023-05-22T10:41:21;96586.88;;;29.14;41.18
6514;BME280;3290;47.716;9.070;2023-05-22T10:43:48;96580.13;;;29.08;40.13
6514;BME280;3290;47.716;9.070;2023-05-22T10:46:13;96582.16;;;28.87;41.76
6514;BME280;3290;47.716;9.070;2023-05-22T10:48:43;96574.34;;;29.45;41.68
6514;BME280;3290;47.716;9.070;2023-05-22T10:51:12;96574.91;;;29.50;39.84
6514;BME280;3290;47.716;9.070;2023-05-22T10:53:39;96569.53;;;29.39;40.44
6514;BME280;3290;47.716;9.070;2023-05-22T10:56:13;96567.84;;;29.22;41.10
6514;BME280;3290;47.716;9.070;2023-05-22T10:58:43;96570.78;;;29.68;41.91
6514;BME280;3290;47.716;9.070;2023-05-22T11:06:43;96558.97;;;30.00;41.48
6514;BME280;3290;47.716;9.070;2023-05-22T11:09:29;96555.84;;;30.56;38.31
6514;BME280;3290;47.716;9.070;2023-05-22T11:12:17;96561.88;;;30.07;41.66
6514;BME280;3290;47.716;9.070;2023-05-22T11:17:29;96544.81;;;29.52;40.96
6514;BME280;3290;47.716;9.070;2023-05-22T11:20:02;96542.72;;;29.85;39.58
6514;BME280;3290;47.716;9.070;2023-05-22T11:22:42;96545.31;;;30.24;39.92
6514;BME280;3290;47.716;9.070;2023-05-22T11:25:18;96539.56;;;29.83;40.37
6514;BME280;3290;47.716;9.070;2023-05-22T11:27:46;96537.25;;;29.96;40.76
6514;BME280;3290;47.716;9.070;2023-05-22T11:30:13;96542.16;;;30.22;39.04
6514;BME280;3290;47.716;9.070;2023-05-22T11:32:42;96533.47;;;29.86;39.32
6514;BME280;3290;47.716;9.070;2023-05-22T11:35:18;96528.28;;;29.92;37.46
6514;BME280;3290;47.716;9.070;2023-05-22T11:37:44;96531.94;;;30.15;37.07
6514;BME280;3290;47.716;9.070;2023-05-22T11:40:13;96526.28;;;30.20;36.78
6514;BME280;3290;47.716;9.070;2023-05-22T11:42:39;96533.53;;;30.16;38.23
6514;BME280;3290;47.716;9.070;2023-05-22T11:45:05;96525.81;;;30.45;37.56
6514;BME280;3290;47.716;9.070;2023-05-22T11:47:31;96527.03;;;30.63;37.17
6514;BME280;3290;47.716;9.070;2023-05-22T11:49:57;96513.94;;;30.65;37.06
6514;BME280;3290;47.716;9.070;2023-05-22T11:52:23;96522.88;;;30.08;35.99
6514;BME280;3290;47.716;9.070;2023-05-22T11:54:50;96527.75;;;30.02;35.38
6514;BME280;3290;47.716;9.070;2023-05-22T11:57:17;96520.94;;;30.51;33.80
6514;BME280;3290;47.716;9.070;2023-05-22T11:59:46;96519.28;;;30.04;33.35
6514;BME280;3290;47.716;9.070;2023-05-22T12:02:11;96518.25;;;29.93;33.61
6514;BME280;3290;47.716;9.070;2023-05-22T12:04:37;96521.44;;;30.56;34.71
6514;BME280;3290;47.716;9.070;2023-05-22T12:07:03;96513.41;;;30.75;34.84
6514;BME280;3290;47.716;9.070;2023-05-22T12:09:29;96514.44;;;30.25;34.83
6514;BME280;3290;47.716;9.070;2023-05-22T12:11:55;96516.28;;;30.67;35.39
6514;BME280;3290;47.716;9.070;2023-05-22T12:14:27;96522.66;;;30.74;34.33
6514;BME280;3290;47.716;9.070;2023-05-22T12:16:53;96515.94;;;30.68;34.36
6514;BME280;3290;47.716;9.070;2023-05-22T12:19:20;96515.75;;;30.30;33.70
6514;BME280;3290;47.716;9.070;2023-05-22T12:21:48;96510.66;;;29.98;34.71
6514;BME280;3290;47.716;9.070;2023-05-22T12:24:13;96508.59;;;30.23;35.39
6514;BME280;3290;47.716;9.070;2023-05-22T12:26:39;96505.81;;;30.50;36.44
6514;BME280;3290;47.716;9.070;2023-05-22T12:29:05;96507.75;;;30.65;35.46
6514;BME280;3290;47.716;9.070;2023-05-22T12:31:34;96500.06;;;30.82;34.66
6514;BME280;3290;47.716;9.070;2023-05-22T12:34:06;96500.50;;;30.53;36.29
6514;BME280;3290;47.716;9.070;2023-05-22T12:36:33;96500.81;;;30.67;35.82
6514;BME280;3290;47.716;9.070;2023-05-22T12:38:59;96509.28;;;30.66;36.00
6514;BME280;3290;47.716;9.070;2023-05-22T12:41:24;96504.69;;;30.35;37.25
6514;BME280;3290;47.716;9.070;2023-05-22T12:43:50;96497.25;;;30.63;36.06
6514;BME280;3290;47.716;9.070;2023-05-22T12:46:15;96493.97;;;30.54;36.25
6514;BME280;3290;47.716;9.070;2023-05-22T12:48:41;96501.47;;;30.30;37.56
6514;BME280;3290;47.716;9.070;2023-05-22T12:51:06;96494.13;;;30.61;35.99
6514;BME280;3290;47.716;9.070;2023-05-22T12:53:33;96487.03;;;30.72;35.84
6514;BME280;3290;47.716;9.070;2023-05-22T12:55:59;96498.03;;;30.48;36.59
6514;BME280;3290;47.716;9.070;2023-05-22T12:58:24;96501.53;;;30.64;36.92
6514;BME280;3290;47.716;9.070;2023-05-22T13:00:49;96498.31;;;30.59;36.07
6514;BME280;3290;47.716;9.070;2023-05-22T13:03:15;96503.63;;;30.70;35.21
6514;BME280;3290;47.716;9.070;2023-05-22T13:05:40;96494.03;;;30.42;35.15
6514;BME280;3290;47.716;9.070;2023-05-22T13:08:06;96493.78;;;30.63;34.08
6514;BME280;3290;47.716;9.070;2023-05-22T13:10:31;96486.84;;;30.04;35.06
6514;BME280;3290;47.716;9.070;2023-05-22T13:12:56;96484.34;;;30.26;34.36
6514;BME280;3290;47.716;9.070;2023-05-22T13:15:22;96494.09;;;30.15;35.80
6514;BME280;3290;47.716;9.070;2023-05-22T13:17:47;96486.97;;;30.23;34.76
6514;BME280;3290;47.716;9.070;2023-05-22T13:20:12;96476.47;;;30.82;35.53
6514;BME280;3290;47.716;9.070;2023-05-22T13:22:38;96475.19;;;30.61;33.92
6514;BME280;3290;47.716;9.070;2023-05-22T13:25:04;96470.38;;;30.85;34.21
6514;BME280;3290;47.716;9.070;2023-05-22T13:27:30;96475.44;;;31.06;35.50
6514;BME280;3290;47.716;9.070;2023-05-22T13:29:55;96476.59;;;31.23;33.39
6514;BME280;3290;47.716;9.070;2023-05-22T13:32:20;96470.09;;;30.75;34.91
6514;BME280;3290;47.716;9.070;2023-05-22T13:34:46;96470.31;;;31.01;34.67
6514;BME280;3290;47.716;9.070;2023-05-22T13:37:12;96469.44;;;30.97;35.35
6514;BME280;3290;47.716;9.070;2023-05-22T13:39:37;96476.50;;;30.21;36.22
6514;BME280;3290;47.716;9.070;2023-05-22T13:42:03;96467.59;;;31.01;35.71